Time;durP1;ratioP1;P1;durP2;ratioP2;P2;SDS_P1;SDS_P2;PMS_P1;PMS_P2;Temp;Humidity;BMP_temperature;BMP_pressure;BME280_temperature;BME280_humidity;BME280_pressure;Samples;Min_cycle;Max_cycle;Signal;HPM_P1;HPM_P2
2022/03/07 00:00:20;;;;;;;3.57;1.27;;;;;;;1.35;62.59;96646.88;5040156;28;20207;-68
2022/03/07 00:02:47;;;;;;;1.80;1.53;;;;;;;1.39;63.33;96650.09;5040326;28;20228;-69
2022/03/07 00:05:16;;;;;;;7.67;2.50;;;;;;;1.55;62.98;96646.22;5040966;28;20257;-69
2022/03/07 00:07:43;;;;;;;5.37;2.70;;;;;;;1.06;64.41;96657.72;5040207;28;20667;-69
2022/03/07 00:10:09;;;;;;;3.80;2.27;;;;;;;1.20;64.89;96642.78;5040331;28;20610;-69
2022/03/07 00:12:36;;;;;;;4.93;2.77;;;;;;;1.14;65.19;96647.59;5040311;28;20994;-68
2022/03/07 00:15:02;;;;;;;2.63;1.93;;;;;;;1.17;65.29;96651.75;5040596;28;20216;-69
2022/03/07 00:17:29;;;;;;;4.10;2.77;;;;;;;1.37;63.66;96655.38;5040753;28;20591;-69
2022/03/07 00:19:55;;;;;;;5.23;2.03;;;;;;;1.00;65.82;96655.53;5038567;28;20202;-69
2022/03/07 00:22:23;;;;;;;3.07;1.80;;;;;;;1.12;65.88;96653.84;5040474;28;20225;-69
2022/03/07 00:24:50;;;;;;;1.50;1.40;;;;;;;1.05;66.17;96656.03;5040941;28;21102;-69
2022/03/07 00:27:16;;;;;;;1.40;1.30;;;;;;;1.22;65.69;96659.09;5040753;28;20208;-68
2022/03/07 00:29:42;;;;;;;2.83;2.50;;;;;;;1.29;65.68;96649.91;5040754;28;20216;-69
2022/03/07 00:32:09;;;;;;;1.07;1.07;;;;;;;1.19;65.20;96652.47;5040148;28;20224;-69
2022/03/07 00:34:35;;;;;;;2.60;1.43;;;;;;;1.13;65.24;96658.09;5038967;28;20220;-69
2022/03/07 00:37:02;;;;;;;3.97;2.30;;;;;;;1.13;65.84;96656.31;5040746;28;20263;-69
2022/03/07 00:39:30;;;;;;;8.30;2.83;;;;;;;1.49;66.25;96659.69;5041064;28;20208;-69
2022/03/07 00:41:56;;;;;;;1.90;1.50;;;;;;;1.49;65.73;96664.88;5040511;28;20812;-69
2022/03/07 00:44:22;;;;;;;3.57;2.47;;;;;;;1.22;66.30;96660.84;5040299;28;20223;-69
2022/03/07 00:46:49;;;;;;;2.77;2.27;;;;;;;1.55;65.20;96658.41;5040513;28;20230;-69
2022/03/07 00:49:15;;;;;;;4.90;2.33;;;;;;;1.57;65.34;96662.53;5040811;28;20209;-68
2022/03/07 00:51:42;;;;;;;2.40;2.20;;;;;;;1.59;63.74;96665.00;5041292;28;20231;-69
2022/03/07 00:54:08;;;;;;;2.07;1.70;;;;;;;1.65;64.04;96665.38;5039975;28;21053;-69
2022/03/07 00:56:36;;;;;;;3.30;2.33;;;;;;;1.63;64.54;96656.06;5041273;28;20206;-68
2022/03/07 00:59:02;;;;;;;4.47;2.43;;;;;;;1.20;66.61;96665.34;5040911;28;20205;-69
2022/03/07 01:01:29;;;;;;;1.80;1.60;;;;;;;1.34;65.82;96665.97;5040412;28;20201;-69
2022/03/07 01:03:55;;;;;;;1.30;1.20;;;;;;;1.13;66.66;96669.28;5041039;28;20229;-69
2022/03/07 01:06:22;;;;;;;8.70;1.17;;;;;;;0.86;67.03;96670.44;5041741;28;20228;-69
2022/03/07 01:08:49;;;;;;;3.23;2.40;;;;;;;1.35;65.41;96672.84;5041833;28;20213;-68
2022/03/07 01:11:15;;;;;;;4.97;2.70;;;;;;;1.30;65.37;96669.75;5041498;28;20199;-69
2022/03/07 01:13:43;;;;;;;1.57;1.47;;;;;;;1.37;64.98;96670.94;5040321;28;20232;-69
2022/03/07 01:16:10;;;;;;;2.50;2.30;;;;;;;1.26;65.04;96670.91;5040506;28;20202;-69
2022/03/07 01:18:36;;;;;;;1.93;1.40;;;;;;;1.34;65.23;96665.16;5040657;28;20228;-69
2022/03/07 01:21:02;;;;;;;3.00;1.90;;;;;;;0.94;66.29;96675.91;5040536;28;20201;-69
2022/03/07 01:23:29;;;;;;;3.43;1.77;;;;;;;0.94;65.85;96665.53;5039683;28;20300;-69
2022/03/07 01:25:55;;;;;;;2.20;1.47;;;;;;;1.07;64.31;96663.72;5039921;28;20997;-69
2022/03/07 01:28:22;;;;;;;3.17;1.83;;;;;;;1.15;65.48;96661.44;5040114;28;20982;-69
2022/03/07 01:30:50;;;;;;;8.67;1.47;;;;;;;1.47;63.92;96655.53;5040419;28;20208;-69
2022/03/07 01:33:17;;;;;;;2.30;1.40;;;;;;;0.60;66.06;96661.06;5037767;28;20993;-68
2022/03/07 01:35:43;;;;;;;1.93;1.43;;;;;;;1.10;64.28;96661.72;5040184;28;20201;-69
2022/03/07 01:38:09;;;;;;;1.37;1.27;;;;;;;1.23;63.69;96650.38;5040307;28;20206;-69
2022/03/07 01:40:36;;;;;;;4.10;2.13;;;;;;;1.17;64.29;96651.75;5040004;28;20201;-68
2022/03/07 01:43:03;;;;;;;2.67;1.93;;;;;;;1.11;63.55;96644.38;5039666;28;20221;-68
2022/03/07 01:45:29;;;;;;;1.70;0.93;;;;;;;1.07;63.91;96643.81;5040033;28;20236;-69
2022/03/07 01:47:57;;;;;;;1.83;1.73;;;;;;;1.05;66.06;96643.06;5040363;28;20216;-69
2022/03/07 01:50:23;;;;;;;1.70;1.23;;;;;;;1.03;64.61;96642.38;5046397;28;20594;-69
2022/03/07 01:52:53;;;;;;;3.00;1.83;;;;;;;0.91;65.17;96640.63;5045755;28;20259;-69
2022/03/07 01:55:20;;;;;;;3.73;2.47;;;;;;;1.00;65.14;96644.34;5046379;28;20197;-69
2022/03/07 01:57:49;;;;;;;1.83;1.67;;;;;;;1.24;64.44;96639.03;5046611;28;20204;-68
2022/03/07 02:00:18;;;;;;;3.17;1.57;;;;;;;1.27;65.03;96637.97;5047015;28;20212;-69
2022/03/07 02:02:44;;;;;;;1.20;1.10;;;;;;;1.17;64.77;96643.97;5046328;28;20232;-69
2022/03/07 02:05:13;;;;;;;3.00;1.77;;;;;;;1.33;64.78;96638.34;5046464;28;20209;-69
2022/03/07 02:07:41;;;;;;;2.17;1.63;;;;;;;1.33;64.67;96640.97;5047546;28;20208;-69
2022/03/07 02:10:09;;;;;;;3.93;1.50;;;;;;;1.27;64.80;96640.56;5046710;28;20673;-69
2022/03/07 02:12:35;;;;;;;2.97;1.30;;;;;;;0.81;66.33;96641.41;5046098;28;20232;-69
2022/03/07 02:15:02;;;;;;;1.90;1.27;;;;;;;1.09;65.01;96643.69;5046886;28;20212;-69
2022/03/07 02:17:29;;;;;;;1.00;1.00;;;;;;;0.59;66.99;96639.47;5047607;28;20205;-69
2022/03/07 02:19:56;;;;;;;1.53;1.43;;;;;;;0.82;66.88;96630.09;5046505;28;20205;-69
2022/03/07 02:22:24;;;;;;;2.10;1.47;;;;;;;0.99;66.09;96629.72;5046383;28;20228;-69
2022/03/07 02:24:51;;;;;;;1.93;1.60;;;;;;;0.91;66.35;96637.22;5047330;28;20205;-69
2022/03/07 02:27:18;;;;;;;5.93;1.23;;;;;;;0.89;66.56;96633.91;5047613;28;20599;-69
2022/03/07 02:29:45;;;;;;;1.57;1.47;;;;;;;0.79;66.16;96628.53;5047220;28;21180;-69
2022/03/07 02:32:12;;;;;;;1.63;1.43;;;;;;;0.76;65.85;96631.38;5046150;28;20225;-69
2022/03/07 02:34:39;;;;;;;2.23;1.63;;;;;;;0.81;66.05;96628.44;5045548;28;20212;-70
2022/03/07 02:37:06;;;;;;;1.83;1.70;;;;;;;0.54;67.19;96632.16;5046665;28;20205;-68
2022/03/07 02:39:33;;;;;;;2.80;2.00;;;;;;;0.84;65.85;96628.19;5049320;28;20229;-69
2022/03/07 02:42:00;;;;;;;2.90;2.13;;;;;;;0.77;64.83;96624.41;5050826;28;20225;-69
2022/03/07 02:44:26;;;;;;;2.17;1.30;;;;;;;0.67;65.32;96621.63;5051102;28;20220;-69
2022/03/07 02:46:53;;;;;;;2.10;1.13;;;;;;;0.61;66.56;96629.00;5048447;28;20229;-69
2022/03/07 02:49:20;;;;;;;2.10;1.03;;;;;;;0.66;66.40;96619.97;5048563;28;20208;-70
2022/03/07 02:51:46;;;;;;;1.47;1.37;;;;;;;0.81;65.96;96623.25;5047333;28;20239;-69
2022/03/07 02:54:13;;;;;;;5.53;2.50;;;;;;;0.64;66.64;96624.44;5045467;28;20556;-69
2022/03/07 02:56:40;;;;;;;2.43;2.23;;;;;;;0.97;65.73;96623.78;5046615;28;20259;-69
2022/03/07 02:59:07;;;;;;;2.07;1.87;;;;;;;0.75;66.42;96623.66;5046694;28;20568;-69
2022/03/07 03:01:33;;;;;;;1.57;1.40;;;;;;;0.64;66.71;96621.84;5043973;28;20209;-69
2022/03/07 03:04:00;;;;;;;5.87;2.47;;;;;;;0.69;66.46;96624.13;5042837;28;20225;-69
2022/03/07 03:06:26;;;;;;;4.30;1.80;;;;;;;0.72;66.03;96622.13;5043413;28;20225;-69
2022/03/07 03:08:53;;;;;;;1.50;1.40;;;;;;;0.67;65.63;96620.81;5043862;28;20411;-69
2022/03/07 03:11:19;;;;;;;1.10;1.10;;;;;;;0.42;66.82;96623.47;5042946;28;20736;-68
2022/03/07 03:13:47;;;;;;;1.97;1.43;;;;;;;0.81;65.42;96612.88;5042712;28;20229;-69
2022/03/07 03:16:13;;;;;;;4.67;2.47;;;;;;;0.63;64.92;96614.19;5043328;28;20208;-69
2022/03/07 03:18:40;;;;;;;3.63;1.83;;;;;;;0.55;65.52;96621.69;5042170;28;20216;-69
2022/03/07 03:21:06;;;;;;;1.13;1.10;;;;;;;0.68;65.80;96617.28;5042948;28;20282;-69
2022/03/07 03:23:33;;;;;;;3.70;2.40;;;;;;;0.64;65.75;96616.66;5040135;28;20239;-69
2022/03/07 03:25:59;;;;;;;2.57;2.23;;;;;;;0.52;65.09;96619.28;5042979;28;20229;-69
2022/03/07 03:28:26;;;;;;;1.27;1.17;;;;;;;0.30;66.82;96615.72;5042500;28;20205;-69
2022/03/07 03:30:54;;;;;;;5.43;3.03;;;;;;;0.60;67.00;96617.81;5042619;28;20700;-69
2022/03/07 03:33:21;;;;;;;2.67;1.57;;;;;;;0.28;66.74;96622.75;5040450;28;20221;-69
2022/03/07 03:35:47;;;;;;;3.70;1.70;;;;;;;0.30;67.88;96626.91;5042598;28;20205;-69
2022/03/07 03:38:14;;;;;;;8.70;1.93;;;;;;;0.28;66.82;96623.59;5043605;28;20307;-69
2022/03/07 03:40:41;;;;;;;1.63;1.53;;;;;;;0.16;67.53;96621.84;5044112;28;20574;-69
2022/03/07 03:43:07;;;;;;;1.60;1.20;;;;;;;0.23;67.67;96620.50;5042691;28;20420;-69
2022/03/07 03:45:34;;;;;;;9.90;3.53;;;;;;;0.35;67.04;96624.81;5043327;28;20204;-69
2022/03/07 03:48:02;;;;;;;3.37;2.00;;;;;;;0.49;67.12;96626.47;5042739;28;20232;-69
2022/03/07 03:50:28;;;;;;;2.80;1.80;;;;;;;0.43;67.30;96627.69;5043188;28;20219;-69
2022/03/07 03:52:55;;;;;;;1.60;1.30;;;;;;;0.18;67.86;96630.34;5042802;28;20231;-69
2022/03/07 03:55:22;;;;;;;2.03;1.40;;;;;;;0.18;67.73;96629.53;5043083;28;20201;-69
2022/03/07 03:57:48;;;;;;;3.43;1.20;;;;;;;-0.04;68.68;96631.91;5042648;28;20211;-69
2022/03/07 04:00:18;;;;;;;2.97;2.20;;;;;;;0.24;68.44;96631.69;5042666;28;20224;-69
2022/03/07 04:02:44;;;;;;;1.97;1.73;;;;;;;-0.10;69.63;96636.66;5043040;28;20232;-69
2022/03/07 04:05:13;;;;;;;6.33;3.30;;;;;;;0.30;69.10;96626.91;5042484;28;20201;-69
2022/03/07 04:07:40;;;;;;;4.43;2.47;;;;;;;0.10;69.06;96632.63;5043380;28;20228;-69
2022/03/07 04:10:07;;;;;;;2.53;2.17;;;;;;;0.06;69.20;96628.59;5042837;28;20216;-69
2022/03/07 04:12:34;;;;;;;2.37;1.07;;;;;;;0.04;69.83;96629.63;5041756;28;20225;-69
2022/03/07 04:15:00;;;;;;;4.80;3.10;;;;;;;-0.05;69.34;96634.59;5042537;28;21122;-69
2022/03/07 04:17:27;;;;;;;1.93;1.77;;;;;;;-0.16;69.56;96632.72;5042331;28;20201;-69
2022/03/07 04:19:53;;;;;;;3.50;1.90;;;;;;;-0.26;69.79;96631.69;5042290;28;20223;-69
2022/03/07 04:22:21;;;;;;;1.70;1.13;;;;;;;-0.01;70.05;96632.53;5041429;28;20217;-69
2022/03/07 04:24:48;;;;;;;1.97;1.67;;;;;;;0.13;68.74;96627.22;5042099;28;20224;-69
2022/03/07 04:27:14;;;;;;;3.17;2.07;;;;;;;0.29;67.58;96629.59;5042618;28;20224;-69
2022/03/07 04:29:41;;;;;;;1.87;1.70;;;;;;;0.20;67.73;96630.22;5042345;28;20201;-69
2022/03/07 04:32:08;;;;;;;1.73;1.60;;;;;;;0.37;66.99;96625.56;5042137;28;20271;-69
2022/03/07 04:34:34;;;;;;;1.50;1.40;;;;;;;0.40;66.68;96627.91;5040372;28;20220;-69
2022/03/07 04:37:01;;;;;;;2.60;1.53;;;;;;;0.48;66.65;96627.41;5042080;28;20219;-69
2022/03/07 04:39:29;;;;;;;1.43;1.33;;;;;;;0.46;67.67;96626.66;5041759;28;20212;-69
2022/03/07 04:41:55;;;;;;;1.43;1.33;;;;;;;0.35;66.70;96629.19;5041243;28;20205;-69
2022/03/07 04:44:22;;;;;;;1.60;1.20;;;;;;;0.04;67.31;96624.47;5041540;28;20209;-69
2022/03/07 04:46:48;;;;;;;3.13;1.33;;;;;;;-0.29;68.59;96631.09;5041450;28;20719;-69
2022/03/07 04:49:15;;;;;;;0.50;0.50;;;;;;;-0.37;69.39;96631.59;5040957;28;20201;-69
2022/03/07 04:51:45;;;;;;;2.20;2.00;;;;;;;-0.36;68.81;96630.63;5042173;28;21102;-69
2022/03/07 04:54:12;;;;;;;3.10;2.17;;;;;;;-0.09;68.37;96633.97;5040682;28;21150;-69
2022/03/07 04:56:43;;;;;;;3.87;1.93;;;;;;;-0.11;68.66;96635.03;5041101;28;20209;-69
2022/03/07 04:59:11;;;;;;;4.60;2.00;;;;;;;0.03;68.27;96635.75;5042033;28;20561;-69
2022/03/07 05:01:37;;;;;;;2.80;2.23;;;;;;;-0.18;68.50;96644.13;5042325;28;20212;-69
2022/03/07 05:04:04;;;;;;;3.03;1.97;;;;;;;-0.29;69.36;96644.03;5040734;28;20572;-69
2022/03/07 05:06:31;;;;;;;1.60;1.50;;;;;;;-0.63;70.34;96647.16;5041354;28;20276;-69
2022/03/07 05:08:57;;;;;;;5.83;2.10;;;;;;;-0.73;70.98;96653.88;5041716;28;20209;-69
2022/03/07 05:11:24;;;;;;;10.90;2.57;;;;;;;-0.39;69.93;96648.97;5041774;28;20205;-70
2022/03/07 05:13:52;;;;;;;1.00;1.00;;;;;;;-0.39;70.56;96643.78;5041367;28;20232;-69
2022/03/07 05:16:18;;;;;;;2.97;2.13;;;;;;;-0.48;71.03;96652.16;5044848;28;20208;-69
2022/03/07 05:18:45;;;;;;;6.17;2.87;;;;;;;-0.51;71.01;96659.28;5043086;28;20216;-69
2022/03/07 05:21:11;;;;;;;4.17;1.90;;;;;;;-0.60;70.80;96652.97;5043396;28;20209;-69
2022/03/07 05:23:38;;;;;;;1.33;1.23;;;;;;;-0.39;70.57;96648.97;5040935;28;20712;-69
2022/03/07 05:26:05;;;;;;;2.60;2.20;;;;;;;-0.26;69.80;96646.41;5042582;28;20243;-69
2022/03/07 05:28:31;;;;;;;1.30;1.23;;;;;;;-0.42;70.15;96643.16;5043001;28;20252;-69
2022/03/07 05:30:59;;;;;;;0.60;0.60;;;;;;;-0.16;69.45;96639.69;5043650;28;20208;-68
2022/03/07 05:33:26;;;;;;;2.00;1.50;;;;;;;-0.33;69.80;96646.00;5041325;28;20228;-69
2022/03/07 05:35:52;;;;;;;2.83;2.33;;;;;;;-0.30;69.72;96648.38;5043635;28;20219;-68
2022/03/07 05:38:19;;;;;;;1.40;1.07;;;;;;;-0.66;70.82;96649.13;5043529;28;20201;-69
2022/03/07 05:40:46;;;;;;;5.53;2.50;;;;;;;-0.37;70.14;96648.88;5043053;28;20209;-69
2022/03/07 05:43:13;;;;;;;1.67;1.57;;;;;;;-0.39;69.66;96645.56;5043666;28;20225;-69
2022/03/07 05:45:39;;;;;;;1.17;1.13;;;;;;;-0.39;68.89;96642.97;5043509;28;20209;-69
2022/03/07 05:48:07;;;;;;;2.23;1.47;;;;;;;-0.31;69.42;96648.47;5042719;28;20221;-69
2022/03/07 05:50:34;;;;;;;3.37;2.60;;;;;;;-0.47;70.25;96652.97;5042075;28;20213;-68
2022/03/07 05:53:01;;;;;;;2.10;1.70;;;;;;;-0.57;69.34;96650.19;5041620;28;20236;-69
2022/03/07 05:55:27;;;;;;;1.03;1.03;;;;;;;-0.52;69.81;96660.25;5041610;28;20201;-68
2022/03/07 05:57:59;;;;;;;1.17;1.03;;;;;;;-0.55;69.31;96656.09;5041983;28;20204;-69
2022/03/07 06:00:26;;;;;;;0.70;0.70;;;;;;;-0.38;68.35;96657.56;5046220;28;20609;-68
2022/03/07 06:02:52;;;;;;;1.17;1.07;;;;;;;-0.65;69.00;96659.38;5045250;28;20219;-69
2022/03/07 06:05:20;;;;;;;5.43;1.60;;;;;;;-0.23;68.92;96653.97;5044977;28;20201;-69
2022/03/07 06:07:47;;;;;;;1.70;1.60;;;;;;;-0.57;69.90;96657.13;5044592;28;20232;-69
2022/03/07 06:10:13;;;;;;;2.30;2.10;;;;;;;-0.36;68.33;96664.28;5045078;28;20209;-69
2022/03/07 06:12:40;;;;;;;1.57;1.47;;;;;;;-0.17;67.73;96661.31;5044921;28;20228;-69
2022/03/07 06:15:08;;;;;;;0.83;0.83;;;;;;;-0.30;68.59;96658.72;5044716;28;20215;-69
2022/03/07 06:17:34;;;;;;;3.20;2.47;;;;;;;-0.42;69.18;96666.47;5044431;28;20205;-69
2022/03/07 06:20:01;;;;;;;6.80;2.50;;;;;;;-0.66;69.56;96665.50;5045225;28;20621;-68
2022/03/07 06:22:29;;;;;;;3.73;2.07;;;;;;;-0.27;69.11;96663.69;5045128;28;20240;-69
2022/03/07 06:24:56;;;;;;;3.20;0.87;;;;;;;-0.48;69.68;96670.28;5044362;28;20211;-69
2022/03/07 06:27:22;;;;;;;1.57;1.00;;;;;;;-0.47;69.90;96676.28;5045049;28;20249;-69
2022/03/07 06:29:50;;;;;;;4.50;1.40;;;;;;;-0.26;68.13;96673.13;5045084;28;20209;-69
2022/03/07 06:32:17;;;;;;;1.77;1.27;;;;;;;-0.15;67.16;96662.88;5045049;28;20236;-69
2022/03/07 06:34:44;;;;;;;1.80;1.40;;;;;;;-0.14;68.07;96672.31;5045683;28;20216;-69
2022/03/07 06:37:11;;;;;;;3.23;1.67;;;;;;;-0.34;69.24;96672.81;5046975;28;20201;-69
2022/03/07 06:39:38;;;;;;;1.87;1.27;;;;;;;0.08;67.16;96682.91;5048604;28;20213;-69
2022/03/07 06:42:05;;;;;;;1.03;0.73;;;;;;;-0.35;68.17;96684.06;5048831;28;20228;-69
2022/03/07 06:44:32;;;;;;;2.30;1.03;;;;;;;-0.41;68.62;96688.84;5047989;28;20444;-69
2022/03/07 06:46:59;;;;;;;1.87;1.50;;;;;;;-0.26;68.64;96693.00;5048955;28;20217;-69
2022/03/07 06:49:25;;;;;;;2.10;1.57;;;;;;;-0.31;67.54;96695.06;5049860;28;20197;-69
2022/03/07 06:51:52;;;;;;;1.63;1.53;;;;;;;-0.16;67.01;96700.06;5048804;28;20211;-69
2022/03/07 06:54:19;;;;;;;0.80;0.77;;;;;;;-0.20;68.00;96703.78;5048536;28;20209;-69
2022/03/07 06:56:46;;;;;;;2.20;1.93;;;;;;;-0.13;68.09;96709.38;5048345;28;20201;-69
2022/03/07 06:59:13;;;;;;;1.47;0.87;;;;;;;-0.26;67.95;96704.19;5049241;28;20205;-69
2022/03/07 07:01:40;;;;;;;1.37;1.27;;;;;;;0.12;66.05;96705.06;5048357;28;20201;-69
2022/03/07 07:04:06;;;;;;;1.23;1.13;;;;;;;-0.22;67.23;96716.00;5048105;28;20209;-69
2022/03/07 07:06:33;;;;;;;3.87;1.70;;;;;;;0.16;66.20;96711.69;5048810;28;20216;-69
2022/03/07 07:08:59;;;;;;;1.90;1.60;;;;;;;0.13;66.30;96714.50;5048335;28;20209;-69
2022/03/07 07:11:26;;;;;;;2.00;1.70;;;;;;;0.24;65.22;96707.66;5049613;28;20220;-69
2022/03/07 07:13:54;;;;;;;3.07;1.13;;;;;;;0.18;65.64;96710.66;5047885;28;20849;-69
2022/03/07 07:16:20;;;;;;;5.50;2.03;;;;;;;0.12;64.79;96716.25;5049127;28;20937;-69
2022/03/07 07:18:47;;;;;;;1.10;1.10;;;;;;;-0.06;64.79;96719.25;5049331;28;20201;-69
2022/03/07 07:21:14;;;;;;;2.53;1.97;;;;;;;-0.05;64.49;96718.31;5047725;28;20205;-69
2022/03/07 07:23:40;;;;;;;3.63;1.73;;;;;;;0.21;64.33;96709.63;5048174;28;20248;-69
2022/03/07 07:26:07;;;;;;;2.13;1.53;;;;;;;-0.03;64.17;96720.81;5049727;28;20610;-69
2022/03/07 07:28:34;;;;;;;0.73;0.73;;;;;;;0.07;64.12;96715.72;5049091;28;20228;-70
2022/03/07 07:31:02;;;;;;;1.47;1.37;;;;;;;0.32;64.44;96714.91;5049178;28;20208;-69
2022/03/07 07:33:29;;;;;;;2.07;1.17;;;;;;;0.34;63.63;96726.81;5049677;28;20588;-69
2022/03/07 07:35:56;;;;;;;1.20;1.10;;;;;;;0.13;63.33;96722.28;5047949;28;20584;-69
2022/03/07 07:38:22;;;;;;;2.03;1.67;;;;;;;0.19;63.71;96720.09;5049453;28;20194;-69
2022/03/07 07:40:49;;;;;;;0.73;0.73;;;;;;;0.25;63.52;96727.44;5049372;28;20568;-69
2022/03/07 07:43:16;;;;;;;2.80;1.87;;;;;;;0.25;63.91;96722.25;5047605;28;20225;-69
2022/03/07 07:45:43;;;;;;;3.60;2.43;;;;;;;0.33;62.29;96719.16;5048692;28;20308;-69
2022/03/07 07:48:11;;;;;;;0.93;0.93;;;;;;;0.35;63.18;96728.47;5048758;28;20225;-69
2022/03/07 07:50:37;;;;;;;1.17;1.17;;;;;;;0.22;62.50;96724.25;5049125;28;20205;-69
2022/03/07 07:53:04;;;;;;;2.23;2.00;;;;;;;0.37;62.91;96721.44;5049559;28;20233;-70
2022/03/07 07:55:31;;;;;;;1.30;1.20;;;;;;;0.54;62.07;96739.28;5049408;28;20201;-70
2022/03/07 07:57:58;;;;;;;2.27;1.83;;;;;;;0.80;61.39;96733.09;5049808;28;20208;-70
2022/03/07 08:00:27;;;;;;;2.70;1.70;;;;;;;0.78;63.13;96732.41;5048586;28;20217;-70
2022/03/07 08:02:54;;;;;;;1.60;1.40;;;;;;;0.93;61.99;96746.88;5049244;28;20245;-70
2022/03/07 08:05:22;;;;;;;2.70;2.07;;;;;;;1.29;62.30;96734.75;5049575;28;20622;-70
2022/03/07 08:07:49;;;;;;;2.17;1.13;;;;;;;1.16;60.40;96735.72;5048648;28;20236;-70
2022/03/07 08:10:17;;;;;;;5.70;1.90;;;;;;;1.27;60.94;96747.00;5049130;28;20251;-70
2022/03/07 08:12:45;;;;;;;2.80;2.43;;;;;;;1.31;61.03;96758.81;5049018;28;20731;-70
2022/03/07 08:15:12;;;;;;;2.10;1.50;;;;;;;1.54;60.49;96755.41;5049417;28;20201;-70
2022/03/07 08:17:40;;;;;;;2.73;1.60;;;;;;;1.33;59.29;96757.78;5049238;28;20209;-70
2022/03/07 08:20:08;;;;;;;5.30;2.20;;;;;;;1.50;59.69;96751.38;5045856;28;20666;-70
2022/03/07 08:22:36;;;;;;;3.40;1.93;;;;;;;1.61;58.84;96754.88;5048403;28;20229;-70
2022/03/07 08:25:03;;;;;;;2.93;2.03;;;;;;;1.36;59.00;96751.53;5047735;28;20234;-70
2022/03/07 08:27:30;;;;;;;2.53;1.67;;;;;;;1.53;59.65;96759.78;5048336;28;20209;-69
2022/03/07 08:29:56;;;;;;;8.67;2.80;;;;;;;1.22;58.35;96746.50;5048068;28;20224;-70
2022/03/07 08:32:23;;;;;;;3.80;2.33;;;;;;;1.34;59.09;96756.84;5047267;28;20236;-70
2022/03/07 08:34:49;;;;;;;1.80;1.70;;;;;;;1.25;60.53;96760.09;5047180;28;20954;-70
2022/03/07 08:37:16;;;;;;;3.60;2.33;;;;;;;1.12;59.61;96763.69;5048286;28;20213;-70
2022/03/07 08:39:44;;;;;;;3.10;2.30;;;;;;;1.62;60.76;96769.50;5047932;28;20297;-70
2022/03/07 08:42:10;;;;;;;2.47;2.07;;;;;;;1.39;58.57;96772.94;5046827;28;20607;-70
2022/03/07 08:44:37;;;;;;;4.23;1.87;;;;;;;1.38;59.17;96765.25;5046362;28;20209;-70
2022/03/07 08:47:04;;;;;;;4.77;2.80;;;;;;;1.50;60.07;96775.59;5047791;28;20205;-70
2022/03/07 08:49:31;;;;;;;2.70;2.07;;;;;;;1.33;60.02;96775.94;5048083;28;20852;-70
2022/03/07 08:51:57;;;;;;;4.33;2.47;;;;;;;1.43;59.04;96769.16;5046019;28;20611;-70
2022/03/07 08:54:24;;;;;;;2.97;1.43;;;;;;;1.60;60.23;96768.78;5047555;28;20197;-70
2022/03/07 08:56:52;;;;;;;2.80;2.33;;;;;;;1.96;58.87;96773.91;5046938;28;20209;-70
2022/03/07 08:59:18;;;;;;;1.47;1.33;;;;;;;2.02;59.56;96781.25;5047461;28;20213;-70
2022/03/07 09:01:45;;;;;;;3.30;2.17;;;;;;;1.87;59.82;96779.78;5048150;28;20198;-70
2022/03/07 09:04:11;;;;;;;3.80;2.90;;;;;;;1.76;59.46;96782.34;5045953;28;20206;-70
2022/03/07 09:06:38;;;;;;;1.90;1.30;;;;;;;1.76;59.76;96771.94;5046325;28;20232;-70
2022/03/07 09:09:04;;;;;;;6.40;1.83;;;;;;;1.86;58.72;96781.56;5046514;28;20230;-70
2022/03/07 09:11:31;;;;;;;6.13;3.13;;;;;;;2.04;57.75;96782.81;5046148;28;20668;-70
2022/03/07 09:13:59;;;;;;;5.27;3.67;;;;;;;2.17;58.14;96787.94;5045792;28;20229;-70
2022/03/07 09:16:26;;;;;;;6.40;3.00;;;;;;;1.81;58.68;96777.63;5044813;28;20967;-70
2022/03/07 09:18:52;;;;;;;4.57;3.20;;;;;;;2.04;59.95;96769.00;5045958;28;20219;-70
2022/03/07 09:21:19;;;;;;;3.73;2.50;;;;;;;2.04;58.50;96771.59;5044883;28;20618;-70
2022/03/07 09:23:46;;;;;;;4.30;2.23;;;;;;;2.02;58.94;96773.47;5044228;28;20221;-69
2022/03/07 09:26:13;;;;;;;3.80;2.17;;;;;;;2.05;58.19;96784.47;5046108;28;20213;-70
2022/03/07 09:28:40;;;;;;;6.10;3.47;;;;;;;1.99;58.25;96784.09;5044599;28;20222;-70
2022/03/07 09:31:08;;;;;;;1.87;1.77;;;;;;;2.36;58.48;96783.84;5044615;28;20211;-69
2022/03/07 09:33:34;;;;;;;4.50;3.00;;;;;;;2.14;57.90;96796.78;5042687;28;20232;-70
2022/03/07 09:36:01;;;;;;;5.47;2.37;;;;;;;2.14;58.49;96788.16;5044739;28;20210;-70
2022/03/07 09:38:28;;;;;;;1.90;1.47;;;;;;;2.40;58.46;96793.91;5044378;28;20214;-70
2022/03/07 09:40:56;;;;;;;4.50;2.03;;;;;;;2.47;57.68;96792.50;5046206;28;20206;-70
2022/03/07 09:43:24;;;;;;;3.73;1.23;;;;;;;2.60;57.27;96790.66;5046498;28;20226;-70
2022/03/07 09:45:50;;;;;;;4.80;3.67;;;;;;;2.61;57.19;96783.66;5045903;28;20221;-70
2022/03/07 09:48:19;;;;;;;4.77;3.70;;;;;;;2.84;57.46;96788.78;5045578;28;20227;-70
2022/03/07 09:50:45;;;;;;;8.83;3.80;;;;;;;2.65;56.89;96798.94;5044130;28;20223;-70
2022/03/07 09:53:13;;;;;;;1.83;1.70;;;;;;;2.52;56.78;96799.97;5045031;28;20225;-70
2022/03/07 09:55:40;;;;;;;3.83;2.53;;;;;;;2.60;56.93;96802.84;5044719;28;20675;-69
2022/03/07 09:58:06;;;;;;;10.90;2.80;;;;;;;3.10;58.41;96798.03;5044903;28;20664;-70
2022/03/07 10:00:33;;;;;;;5.00;2.37;;;;;;;3.25;56.40;96802.06;5046369;28;20503;-69
2022/03/07 10:03:05;;;;;;;7.07;3.53;;;;;;;3.16;54.62;96798.38;5044620;28;20231;-69
2022/03/07 10:05:36;;;;;;;5.73;3.00;;;;;;;3.12;55.83;96799.56;5044205;28;20209;-70
2022/03/07 10:08:03;;;;;;;10.23;3.27;;;;;;;2.76;55.38;96809.38;5045104;28;20212;-70
2022/03/07 10:10:31;;;;;;;8.27;3.20;;;;;;;2.92;56.87;96815.06;5046749;28;20205;-70
2022/03/07 10:13:02;;;;;;;4.30;3.47;;;;;;;2.94;56.27;96813.19;5049409;28;20308;-70
2022/03/07 10:15:29;;;;;;;4.70;3.07;;;;;;;2.98;56.45;96816.34;5048991;28;20196;-70
2022/03/07 10:17:56;;;;;;;3.17;2.40;;;;;;;3.09;55.41;96805.00;5050997;28;20215;-70
2022/03/07 10:20:26;;;;;;;13.00;3.67;;;;;;;2.93;54.98;96813.25;5048293;28;20833;-70
2022/03/07 10:22:56;;;;;;;9.53;3.63;;;;;;;3.47;55.53;96809.84;5047665;28;20227;-70
2022/03/07 10:25:25;;;;;;;5.40;2.83;;;;;;;3.32;54.11;96811.03;5050853;28;20208;-71
2022/03/07 10:27:53;;;;;;;3.07;2.73;;;;;;;3.32;55.05;96811.03;5051124;28;20232;-70
2022/03/07 10:30:21;;;;;;;6.40;3.23;;;;;;;3.77;54.47;96806.47;5049509;28;20215;-70
2022/03/07 10:32:56;;;;;;;18.23;4.23;;;;;;;4.11;52.99;96815.00;5048428;28;20301;-70
2022/03/07 10:35:25;;;;;;;6.20;3.03;;;;;;;3.87;52.34;96814.38;5050451;28;20576;-70
2022/03/07 10:37:58;;;;;;;6.10;2.60;;;;;;;3.94;52.80;96812.94;5050749;28;20197;-70
2022/03/07 10:40:25;;;;;;;8.37;3.50;;;;;;;3.76;52.02;96815.22;5051325;28;20252;-70
2022/03/07 10:42:53;;;;;;;8.67;3.63;;;;;;;4.20;51.06;96814.25;5049097;28;20228;-70
2022/03/07 10:45:20;;;;;;;8.40;4.60;;;;;;;4.11;51.61;96804.56;5048941;28;20208;-70
2022/03/07 10:47:52;;;;;;;9.93;4.30;;;;;;;4.13;50.93;96811.31;5049051;28;20205;-70
2022/03/07 10:50:21;;;;;;;12.67;4.50;;;;;;;4.52;49.25;96800.22;5051366;28;20225;-70
2022/03/07 10:52:47;;;;;;;6.77;3.97;;;;;;;4.54;48.81;96800.94;5049591;28;20225;-70
2022/03/07 10:55:15;;;;;;;7.10;3.53;;;;;;;4.75;47.18;96797.38;5049546;28;20848;-68
2022/03/07 10:57:43;;;;;;;6.67;3.17;;;;;;;4.38;47.56;96801.38;5049445;28;20204;-70
2022/03/07 11:00:12;;;;;;;9.63;3.20;;;;;;;4.49;47.69;96787.44;5050353;28;20205;-70
2022/03/07 11:02:40;;;;;;;5.73;3.20;;;;;;;4.79;48.61;96795.34;5049899;28;20235;-70
2022/03/07 11:05:08;;;;;;;6.73;3.27;;;;;;;4.92;46.85;96784.53;5048943;28;20347;-70
2022/03/07 11:07:37;;;;;;;10.23;3.83;;;;;;;4.71;46.76;96803.81;5048938;28;20205;-70
2022/03/07 11:10:06;;;;;;;6.13;2.83;;;;;;;5.07;48.42;96793.69;5049360;28;20221;-70
2022/03/07 11:12:35;;;;;;;5.80;3.40;;;;;;;5.03;48.02;96783.66;5049012;28;20229;-71
2022/03/07 11:15:08;;;;;;;4.13;3.03;;;;;;;4.63;47.59;96782.72;5049486;28;20588;-70
2022/03/07 11:17:38;;;;;;;11.00;4.67;;;;;;;5.08;47.12;96795.34;5049233;28;20217;-70
2022/03/07 11:20:06;;;;;;;3.30;2.43;;;;;;;4.43;46.97;96796.59;5049792;28;20205;-70
2022/03/07 11:22:32;;;;;;;8.60;3.37;;;;;;;4.37;48.62;96794.50;5048260;28;20225;-70
2022/03/07 11:25:00;;;;;;;4.80;2.27;;;;;;;4.85;46.16;96787.81;5049165;28;20212;-70
2022/03/07 11:27:27;;;;;;;5.17;3.30;;;;;;;4.42;48.40;96797.56;5047292;28;20204;-70
2022/03/07 11:29:56;;;;;;;6.63;2.93;;;;;;;4.93;46.59;96783.59;5049088;28;20236;-70
2022/03/07 11:32:22;;;;;;;5.77;2.87;;;;;;;5.24;46.58;96785.25;5049353;28;20247;-70
2022/03/07 11:34:54;;;;;;;4.10;2.10;;;;;;;5.41;47.10;96782.03;5049546;28;20201;-70
2022/03/07 11:37:22;;;;;;;8.17;3.90;;;;;;;5.31;47.03;96785.53;5049426;28;20615;-70